Información del aeropuerto LEAM

Información de pista
Pista 08 Longitud 10499 ft Anchura 148 ft
Elevación 26 ft Umbral 492 ft Rumbo 73
Pista 26 Longitud 10499 ft Anchura 148 ft
Elevación 70 ft Umbral 0 ft Rumbo 253
Frecuencias del aeropuerto
Tipo APP Nombre APP Frecuencia 118.35 MHZ
Tipo GND Nombre GND Frecuencia 121.7 MHZ
Tipo TWR Nombre TWR Frecuencia 118.35 MHZ
Radioayudas del aeropuerto
Tipo NDB Nombre Almeria Frecuencia 284 KHZ
Tipo NDB Nombre Almeria Frecuencia 310 KHZ
Tipo VOR-DME Nombre Almeria Frecuencia 114100 KHZ
Información meteorológica del aeropuerto y NOTAM
ADDS - METARS form results

(1521 UTC 16 January 2021)
Data provider http://aviationweather.gov/metar/data/
 
METAR text: LEAM 161500Z 12010KT 080V140 CAVOK 16/05 Q1026
Conditions at: LEAM (ALMERIA AIRPORT , ES) observed 1500 UTC 16 January 2021
Temperature: 16.0°C (61°F)
Dewpoint: 5.0°C (41°F) [RH = 48%]
Pressure (altimeter): 30.30 inches Hg (1026.0 mb)
Winds: from the ESE (120 degrees) at 12 MPH (10 knots; 5.1 m/s)
Visibility: 6 or more miles (10+ km)
Ceiling: ceiling and visibility are OK
Clouds: unknown
Weather: no significant weather observed at this time

METAR text: LEAM 161430Z 12010KT 090V160 CAVOK 16/04 Q1026
Conditions at: LEAM (ALMERIA AIRPORT , ES) observed 1430 UTC 16 January 2021
Temperature: 16.0°C (61°F)
Dewpoint: 4.0°C (39°F) [RH = 45%]
Pressure (altimeter): 30.30 inches Hg (1026.0 mb)
Winds: from the ESE (120 degrees) at 12 MPH (10 knots; 5.1 m/s)
Visibility: 6 or more miles (10+ km)
Ceiling: ceiling and visibility are OK
Clouds: unknown
Weather: no significant weather observed at this time

Forecast for: LEAM (ALMERIA AIRPORT , ES)
Text: TAF LEAM 161400Z 1615/1715 12010KT CAVOK TX16/1713Z TN06/1706Z
Forecast period: 1500 to 1800 UTC 16 January 2021
Forecast type: FROM: standard forecast or significant change
Winds: from the ESE (120 degrees) at 12 MPH (10 knots; 5.1 m/s)
Visibility: 6 or more miles (10+ km)
Ceiling: unknown
Clouds: missing
Weather: no significant weather forecast for this period
Text: BECMG 1618/1621 34008KT
Forecast period: 1800 UTC 16 January 2021 to 1500 UTC 17 January 2021
Forecast type: BECOMING: Conditions expected to become as follows by 2100 UTC 16 January 2021
Winds: from the NNW (340 degrees) at 9 MPH (8 knots; 4.1 m/s)
Visibility: 6 or more miles (10+ km)
Ceiling: unknown
Clouds: missing
Weather: no significant weather forecast for this period